sensor_id;sensor_type;location;lat;lon;timestamp;pressure;altitude;pressure_sealevel;temperature;humidity
75089;BME280;63673;49.928;8.150;2023-07-31T00:00:09;989.62;;;16.94;100
75089;BME280;63673;49.928;8.150;2023-07-31T00:01:10;989.67;;;16.94;100
75089;BME280;63673;49.928;8.150;2023-07-31T00:02:12;989.65;;;16.94;100
75089;BME280;63673;49.928;8.150;2023-07-31T00:03:14;989.62;;;16.94;100
75089;BME280;63673;49.928;8.150;2023-07-31T00:04:15;989.59;;;16.94;100
75089;BME280;63673;49.928;8.150;2023-07-31T00:05:17;989.59;;;16.93;100
75089;BME280;63673;49.928;8.150;2023-07-31T00:06:19;989.62;;;16.92;100
75089;BME280;63673;49.928;8.150;2023-07-31T00:07:20;989.56;;;16.93;100
75089;BME280;63673;49.928;8.150;2023-07-31T00:08:22;989.6;;;16.93;100
75089;BME280;63673;49.928;8.150;2023-07-31T00:09:24;989.57;;;16.93;100
75089;BME280;63673;49.928;8.150;2023-07-31T00:10:26;989.58;;;16.93;100
75089;BME280;63673;49.928;8.150;2023-07-31T00:11:27;989.56;;;16.93;100
75089;BME280;63673;49.928;8.150;2023-07-31T00:12:29;989.57;;;16.94;100
75089;BME280;63673;49.928;8.150;2023-07-31T00:13:31;989.58;;;16.94;100
75089;BME280;63673;49.928;8.150;2023-07-31T00:14:33;989.55;;;16.93;100
75089;BME280;63673;49.928;8.150;2023-07-31T00:15:35;989.52;;;16.94;100
75089;BME280;63673;49.928;8.150;2023-07-31T00:16:36;989.49;;;16.94;100
75089;BME280;63673;49.928;8.150;2023-07-31T00:17:38;989.47;;;16.94;100
75089;BME280;63673;49.928;8.150;2023-07-31T00:18:40;989.45;;;16.94;100
75089;BME280;63673;49.928;8.150;2023-07-31T00:19:41;989.42;;;16.95;100
75089;BME280;63673;49.928;8.150;2023-07-31T00:20:43;989.43;;;16.95;100
75089;BME280;63673;49.928;8.150;2023-07-31T00:21:45;989.43;;;16.95;100
75089;BME280;63673;49.928;8.150;2023-07-31T00:22:47;989.42;;;16.95;100
75089;BME280;63673;49.928;8.150;2023-07-31T00:23:48;989.44;;;16.96;100
75089;BME280;63673;49.928;8.150;2023-07-31T00:24:50;989.42;;;16.96;100
75089;BME280;63673;49.928;8.150;2023-07-31T00:25:52;989.4;;;16.96;100
75089;BME280;63673;49.928;8.150;2023-07-31T00:26:53;989.36;;;16.97;100
75089;BME280;63673;49.928;8.150;2023-07-31T00:27:55;989.4;;;16.96;100
75089;BME280;63673;49.928;8.150;2023-07-31T00:28:57;989.42;;;16.96;100
75089;BME280;63673;49.928;8.150;2023-07-31T00:29:59;989.36;;;16.95;100
75089;BME280;63673;49.928;8.150;2023-07-31T00:31:00;989.37;;;16.94;100
75089;BME280;63673;49.928;8.150;2023-07-31T00:32:02;989.37;;;16.94;100
75089;BME280;63673;49.928;8.150;2023-07-31T00:33:04;989.32;;;16.93;100
75089;BME280;63673;49.928;8.150;2023-07-31T00:34:06;989.39;;;16.92;100
75089;BME280;63673;49.928;8.150;2023-07-31T00:35:07;989.42;;;16.91;100
75089;BME280;63673;49.928;8.150;2023-07-31T00:36:09;989.38;;;16.9;100
75089;BME280;63673;49.928;8.150;2023-07-31T00:37:11;989.34;;;16.9;100
75089;BME280;63673;49.928;8.150;2023-07-31T00:38:13;989.39;;;16.89;100
75089;BME280;63673;49.928;8.150;2023-07-31T00:39:14;989.4;;;16.89;100
75089;BME280;63673;49.928;8.150;2023-07-31T00:40:16;989.37;;;16.88;100
75089;BME280;63673;49.928;8.150;2023-07-31T00:41:18;989.37;;;16.88;100
75089;BME280;63673;49.928;8.150;2023-07-31T00:42:20;989.39;;;16.88;100
75089;BME280;63673;49.928;8.150;2023-07-31T00:43:21;989.34;;;16.87;100
75089;BME280;63673;49.928;8.150;2023-07-31T00:44:23;989.35;;;16.88;100
75089;BME280;63673;49.928;8.150;2023-07-31T00:45:25;989.37;;;16.88;100
75089;BME280;63673;49.928;8.150;2023-07-31T00:46:26;989.35;;;16.88;100
75089;BME280;63673;49.928;8.150;2023-07-31T00:47:28;989.35;;;16.88;100
75089;BME280;63673;49.928;8.150;2023-07-31T00:48:30;989.36;;;16.88;100
75089;BME280;63673;49.928;8.150;2023-07-31T00:49:32;989.3;;;16.88;100
75089;BME280;63673;49.928;8.150;2023-07-31T00:50:33;989.32;;;16.89;100
75089;BME280;63673;49.928;8.150;2023-07-31T00:51:35;989.26;;;16.88;100
75089;BME280;63673;49.928;8.150;2023-07-31T00:52:37;989.26;;;16.89;100
75089;BME280;63673;49.928;8.150;2023-07-31T00:53:38;989.25;;;16.89;100
75089;BME280;63673;49.928;8.150;2023-07-31T00:54:40;989.24;;;16.88;100
75089;BME280;63673;49.928;8.150;2023-07-31T00:55:42;989.22;;;16.88;100
75089;BME280;63673;49.928;8.150;2023-07-31T00:56:44;989.22;;;16.88;100
75089;BME280;63673;49.928;8.150;2023-07-31T00:57:45;989.25;;;16.88;100
75089;BME280;63673;49.928;8.150;2023-07-31T00:58:47;989.22;;;16.87;100
75089;BME280;63673;49.928;8.150;2023-07-31T00:59:49;989.25;;;16.87;100
75089;BME280;63673;49.928;8.150;2023-07-31T01:00:51;989.22;;;16.86;100
75089;BME280;63673;49.928;8.150;2023-07-31T01:01:52;989.26;;;16.85;100
75089;BME280;63673;49.928;8.150;2023-07-31T01:02:54;989.21;;;16.84;100
75089;BME280;63673;49.928;8.150;2023-07-31T01:03:56;989.18;;;16.84;100
75089;BME280;63673;49.928;8.150;2023-07-31T01:04:58;989.23;;;16.85;100
75089;BME280;63673;49.928;8.150;2023-07-31T01:06:03;989.24;;;16.84;100
75089;BME280;63673;49.928;8.150;2023-07-31T01:07:01;989.22;;;16.84;100
75089;BME280;63673;49.928;8.150;2023-07-31T01:08:04;989.21;;;16.83;100
75089;BME280;63673;49.928;8.150;2023-07-31T01:09:06;989.22;;;16.84;100
75089;BME280;63673;49.928;8.150;2023-07-31T01:10:08;989.26;;;16.84;100
75089;BME280;63673;49.928;8.150;2023-07-31T01:11:10;989.22;;;16.85;100
75089;BME280;63673;49.928;8.150;2023-07-31T01:12:12;989.28;;;16.84;100
75089;BME280;63673;49.928;8.150;2023-07-31T01:13:11;989.28;;;16.85;100
75089;BME280;63673;49.928;8.150;2023-07-31T01:14:13;989.28;;;16.85;100
75089;BME280;63673;49.928;8.150;2023-07-31T01:15:15;989.28;;;16.86;100
75089;BME280;63673;49.928;8.150;2023-07-31T01:16:17;989.28;;;16.85;100
75089;BME280;63673;49.928;8.150;2023-07-31T01:17:18;989.22;;;16.86;100
75089;BME280;63673;49.928;8.150;2023-07-31T01:18:20;989.28;;;16.85;100
75089;BME280;63673;49.928;8.150;2023-07-31T01:19:23;989.27;;;16.86;100
75089;BME280;63673;49.928;8.150;2023-07-31T01:20:24;989.25;;;16.85;100
75089;BME280;63673;49.928;8.150;2023-07-31T01:21:30;989.22;;;16.84;100
75089;BME280;63673;49.928;8.150;2023-07-31T01:22:30;989.23;;;16.85;100
75089;BME280;63673;49.928;8.150;2023-07-31T01:23:35;989.23;;;16.85;100
75089;BME280;63673;49.928;8.150;2023-07-31T01:24:34;989.19;;;16.85;100
75089;BME280;63673;49.928;8.150;2023-07-31T01:26:34;989.23;;;16.83;100
75089;BME280;63673;49.928;8.150;2023-07-31T01:27:37;989.29;;;16.82;100
75089;BME280;63673;49.928;8.150;2023-07-31T01:28:40;989.29;;;16.81;100
75089;BME280;63673;49.928;8.150;2023-07-31T01:29:42;989.28;;;16.8;100
75089;BME280;63673;49.928;8.150;2023-07-31T01:30:43;989.26;;;16.79;100
75089;BME280;63673;49.928;8.150;2023-07-31T01:31:43;989.2;;;16.78;100
75089;BME280;63673;49.928;8.150;2023-07-31T01:32:45;989.23;;;16.77;100
75089;BME280;63673;49.928;8.150;2023-07-31T01:33:46;989.16;;;16.77;100
75089;BME280;63673;49.928;8.150;2023-07-31T01:34:48;989.09;;;16.76;100
75089;BME280;63673;49.928;8.150;2023-07-31T01:35:49;989.13;;;16.75;100
75089;BME280;63673;49.928;8.150;2023-07-31T01:36:51;989.11;;;16.73;100
75089;BME280;63673;49.928;8.150;2023-07-31T01:37:53;989.06;;;16.72;100
75089;BME280;63673;49.928;8.150;2023-07-31T01:38:57;989.08;;;16.71;100
75089;BME280;63673;49.928;8.150;2023-07-31T01:39:56;989.07;;;16.71;100
75089;BME280;63673;49.928;8.150;2023-07-31T01:40:58;989.1;;;16.7;100
75089;BME280;63673;49.928;8.150;2023-07-31T01:42:00;989.1;;;16.69;100
75089;BME280;63673;49.928;8.150;2023-07-31T01:43:02;989.04;;;16.7;100
75089;BME280;63673;49.928;8.150;2023-07-31T01:44:04;988.99;;;16.69;100
75089;BME280;63673;49.928;8.150;2023-07-31T01:45:05;989.06;;;16.68;100
75089;BME280;63673;49.928;8.150;2023-07-31T01:46:07;988.97;;;16.67;100
75089;BME280;63673;49.928;8.150;2023-07-31T01:47:09;989.06;;;16.67;100
75089;BME280;63673;49.928;8.150;2023-07-31T01:48:10;989.01;;;16.66;100
75089;BME280;63673;49.928;8.150;2023-07-31T01:49:12;989;;;16.66;100
75089;BME280;63673;49.928;8.150;2023-07-31T01:50:14;988.99;;;16.66;100
75089;BME280;63673;49.928;8.150;2023-07-31T01:51:15;989;;;16.64;100
75089;BME280;63673;49.928;8.150;2023-07-31T01:52:17;988.97;;;16.64;100
75089;BME280;63673;49.928;8.150;2023-07-31T01:53:19;988.97;;;16.63;100
75089;BME280;63673;49.928;8.150;2023-07-31T01:54:21;989.05;;;16.62;100
75089;BME280;63673;49.928;8.150;2023-07-31T01:55:23;988.97;;;16.62;100
75089;BME280;63673;49.928;8.150;2023-07-31T01:56:24;989.02;;;16.61;100
75089;BME280;63673;49.928;8.150;2023-07-31T01:57:26;989;;;16.61;100
75089;BME280;63673;49.928;8.150;2023-07-31T01:58:28;988.99;;;16.61;100
75089;BME280;63673;49.928;8.150;2023-07-31T01:59:29;988.96;;;16.6;100
75089;BME280;63673;49.928;8.150;2023-07-31T02:00:31;988.97;;;16.6;100
75089;BME280;63673;49.928;8.150;2023-07-31T02:01:33;988.91;;;16.6;100
75089;BME280;63673;49.928;8.150;2023-07-31T02:02:35;988.93;;;16.59;100
75089;BME280;63673;49.928;8.150;2023-07-31T02:03:37;988.92;;;16.59;100
75089;BME280;63673;49.928;8.150;2023-07-31T02:04:38;988.89;;;16.58;100
75089;BME280;63673;49.928;8.150;2023-07-31T02:05:43;988.82;;;16.58;100
75089;BME280;63673;49.928;8.150;2023-07-31T02:06:42;988.9;;;16.58;100
75089;BME280;63673;49.928;8.150;2023-07-31T02:07:43;988.87;;;16.57;100
75089;BME280;63673;49.928;8.150;2023-07-31T02:08:45;988.81;;;16.56;100
75089;BME280;63673;49.928;8.150;2023-07-31T02:09:47;988.8;;;16.56;100
75089;BME280;63673;49.928;8.150;2023-07-31T02:10:48;988.76;;;16.55;100
75089;BME280;63673;49.928;8.150;2023-07-31T02:11:50;988.73;;;16.54;100
75089;BME280;63673;49.928;8.150;2023-07-31T02:12:52;988.7;;;16.55;100
75089;BME280;63673;49.928;8.150;2023-07-31T02:13:54;988.71;;;16.55;100
75089;BME280;63673;49.928;8.150;2023-07-31T02:14:55;988.65;;;16.55;100
75089;BME280;63673;49.928;8.150;2023-07-31T02:15:57;988.65;;;16.55;100
75089;BME280;63673;49.928;8.150;2023-07-31T02:16:59;988.65;;;16.55;100
75089;BME280;63673;49.928;8.150;2023-07-31T02:18:01;988.66;;;16.55;100
75089;BME280;63673;49.928;8.150;2023-07-31T02:19:02;988.68;;;16.56;100
75089;BME280;63673;49.928;8.150;2023-07-31T02:20:04;988.68;;;16.56;100
75089;BME280;63673;49.928;8.150;2023-07-31T02:21:06;988.64;;;16.56;100
75089;BME280;63673;49.928;8.150;2023-07-31T02:22:08;988.61;;;16.57;100
75089;BME280;63673;49.928;8.150;2023-07-31T02:23:09;988.62;;;16.57;100
75089;BME280;63673;49.928;8.150;2023-07-31T02:24:11;988.61;;;16.58;100
75089;BME280;63673;49.928;8.150;2023-07-31T02:25:13;988.6;;;16.59;100
75089;BME280;63673;49.928;8.150;2023-07-31T02:26:14;988.61;;;16.59;100
75089;BME280;63673;49.928;8.150;2023-07-31T02:27:18;988.58;;;16.6;100
75089;BME280;63673;49.928;8.150;2023-07-31T02:28:18;988.61;;;16.61;100
75089;BME280;63673;49.928;8.150;2023-07-31T02:29:20;988.58;;;16.6;100
75089;BME280;63673;49.928;8.150;2023-07-31T02:30:21;988.56;;;16.6;100
75089;BME280;63673;49.928;8.150;2023-07-31T02:31:23;988.54;;;16.6;100
75089;BME280;63673;49.928;8.150;2023-07-31T02:32:25;988.55;;;16.6;100
75089;BME280;63673;49.928;8.150;2023-07-31T02:33:27;988.58;;;16.6;100
75089;BME280;63673;49.928;8.150;2023-07-31T02:34:28;988.54;;;16.6;100
75089;BME280;63673;49.928;8.150;2023-07-31T02:35:30;988.54;;;16.61;100
75089;BME280;63673;49.928;8.150;2023-07-31T02:36:32;988.58;;;16.6;100
75089;BME280;63673;49.928;8.150;2023-07-31T02:37:34;988.57;;;16.61;100
75089;BME280;63673;49.928;8.150;2023-07-31T02:38:35;988.59;;;16.6;100
75089;BME280;63673;49.928;8.150;2023-07-31T02:39:37;988.61;;;16.61;100
75089;BME280;63673;49.928;8.150;2023-07-31T02:40:39;988.62;;;16.6;100
75089;BME280;63673;49.928;8.150;2023-07-31T02:41:41;988.64;;;16.61;100
75089;BME280;63673;49.928;8.150;2023-07-31T02:42:42;988.67;;;16.6;100
75089;BME280;63673;49.928;8.150;2023-07-31T02:43:44;988.69;;;16.6;100
75089;BME280;63673;49.928;8.150;2023-07-31T02:44:46;988.7;;;16.6;100
75089;BME280;63673;49.928;8.150;2023-07-31T02:45:50;988.77;;;16.6;100
75089;BME280;63673;49.928;8.150;2023-07-31T02:46:49;988.77;;;16.6;100
75089;BME280;63673;49.928;8.150;2023-07-31T02:47:51;988.75;;;16.59;100
75089;BME280;63673;49.928;8.150;2023-07-31T02:48:53;988.79;;;16.59;100
75089;BME280;63673;49.928;8.150;2023-07-31T02:49:54;988.83;;;16.59;100
75089;BME280;63673;49.928;8.150;2023-07-31T02:50:56;988.76;;;16.59;100
75089;BME280;63673;49.928;8.150;2023-07-31T02:51:58;988.77;;;16.58;100
75089;BME280;63673;49.928;8.150;2023-07-31T02:52:59;988.78;;;16.58;100
75089;BME280;63673;49.928;8.150;2023-07-31T02:54:01;988.78;;;16.58;100
75089;BME280;63673;49.928;8.150;2023-07-31T02:55:03;988.8;;;16.58;100
75089;BME280;63673;49.928;8.150;2023-07-31T02:56:05;988.79;;;16.57;100
75089;BME280;63673;49.928;8.150;2023-07-31T02:57:06;988.78;;;16.56;100
75089;BME280;63673;49.928;8.150;2023-07-31T02:58:08;988.77;;;16.56;100
75089;BME280;63673;49.928;8.150;2023-07-31T02:59:10;988.79;;;16.56;100
75089;BME280;63673;49.928;8.150;2023-07-31T03:00:12;988.74;;;16.57;100
75089;BME280;63673;49.928;8.150;2023-07-31T03:01:14;988.84;;;16.57;100
75089;BME280;63673;49.928;8.150;2023-07-31T03:02:16;988.78;;;16.56;100
75089;BME280;63673;49.928;8.150;2023-07-31T03:03:17;988.82;;;16.56;100
75089;BME280;63673;49.928;8.150;2023-07-31T03:04:19;988.77;;;16.57;100
75089;BME280;63673;49.928;8.150;2023-07-31T03:05:21;988.72;;;16.57;100
75089;BME280;63673;49.928;8.150;2023-07-31T03:06:22;988.85;;;16.56;100
75089;BME280;63673;49.928;8.150;2023-07-31T03:07:24;988.8;;;16.56;100
75089;BME280;63673;49.928;8.150;2023-07-31T03:08:25;988.84;;;16.57;100
75089;BME280;63673;49.928;8.150;2023-07-31T03:09:27;988.78;;;16.56;100
75089;BME280;63673;49.928;8.150;2023-07-31T03:10:29;988.82;;;16.56;100
75089;BME280;63673;49.928;8.150;2023-07-31T03:11:31;988.8;;;16.56;100
75089;BME280;63673;49.928;8.150;2023-07-31T03:12:32;988.85;;;16.56;100
75089;BME280;63673;49.928;8.150;2023-07-31T03:13:34;988.82;;;16.56;100
75089;BME280;63673;49.928;8.150;2023-07-31T03:14:36;988.79;;;16.55;100
75089;BME280;63673;49.928;8.150;2023-07-31T03:15:38;988.81;;;16.55;100
75089;BME280;63673;49.928;8.150;2023-07-31T03:16:39;988.77;;;16.55;100
75089;BME280;63673;49.928;8.150;2023-07-31T03:17:41;988.73;;;16.54;100
75089;BME280;63673;49.928;8.150;2023-07-31T03:18:43;988.7;;;16.54;100
75089;BME280;63673;49.928;8.150;2023-07-31T03:19:45;988.73;;;16.53;100
75089;BME280;63673;49.928;8.150;2023-07-31T03:20:46;988.71;;;16.51;100
75089;BME280;63673;49.928;8.150;2023-07-31T03:21:48;988.74;;;16.51;100
75089;BME280;63673;49.928;8.150;2023-07-31T03:22:50;988.71;;;16.5;100
75089;BME280;63673;49.928;8.150;2023-07-31T03:23:51;988.75;;;16.5;100
75089;BME280;63673;49.928;8.150;2023-07-31T03:24:53;988.73;;;16.49;100
75089;BME280;63673;49.928;8.150;2023-07-31T03:25:55;988.75;;;16.48;100
75089;BME280;63673;49.928;8.150;2023-07-31T03:26:57;988.76;;;16.47;100
75089;BME280;63673;49.928;8.150;2023-07-31T03:27:58;988.68;;;16.46;100
75089;BME280;63673;49.928;8.150;2023-07-31T03:29:00;988.78;;;16.46;100
75089;BME280;63673;49.928;8.150;2023-07-31T03:30:02;988.73;;;16.45;100
75089;BME280;63673;49.928;8.150;2023-07-31T03:31:04;988.76;;;16.44;100
75089;BME280;63673;49.928;8.150;2023-07-31T03:32:06;988.74;;;16.42;100
75089;BME280;63673;49.928;8.150;2023-07-31T03:33:07;988.78;;;16.4;100
75089;BME280;63673;49.928;8.150;2023-07-31T03:34:09;988.76;;;16.4;100
75089;BME280;63673;49.928;8.150;2023-07-31T03:35:11;988.74;;;16.4;100
75089;BME280;63673;49.928;8.150;2023-07-31T03:36:12;988.72;;;16.38;100
75089;BME280;63673;49.928;8.150;2023-07-31T03:37:14;988.75;;;16.37;100
75089;BME280;63673;49.928;8.150;2023-07-31T03:38:16;988.72;;;16.36;100
75089;BME280;63673;49.928;8.150;2023-07-31T03:39:18;988.63;;;16.35;100
75089;BME280;63673;49.928;8.150;2023-07-31T03:40:19;988.67;;;16.34;100
75089;BME280;63673;49.928;8.150;2023-07-31T03:41:21;988.73;;;16.33;100
75089;BME280;63673;49.928;8.150;2023-07-31T03:42:23;988.7;;;16.32;100
75089;BME280;63673;49.928;8.150;2023-07-31T03:43:24;988.68;;;16.3;100
75089;BME280;63673;49.928;8.150;2023-07-31T03:44:26;988.76;;;16.28;100
75089;BME280;63673;49.928;8.150;2023-07-31T03:45:28;988.64;;;16.28;100
75089;BME280;63673;49.928;8.150;2023-07-31T03:46:30;988.7;;;16.26;100
75089;BME280;63673;49.928;8.150;2023-07-31T03:47:31;988.65;;;16.25;100
75089;BME280;63673;49.928;8.150;2023-07-31T03:48:33;988.66;;;16.24;100
75089;BME280;63673;49.928;8.150;2023-07-31T03:49:35;988.61;;;16.23;100
75089;BME280;63673;49.928;8.150;2023-07-31T03:50:37;988.68;;;16.22;100
75089;BME280;63673;49.928;8.150;2023-07-31T03:51:38;988.7;;;16.21;100
75089;BME280;63673;49.928;8.150;2023-07-31T03:52:40;988.7;;;16.19;100
75089;BME280;63673;49.928;8.150;2023-07-31T03:53:42;988.63;;;16.17;100
75089;BME280;63673;49.928;8.150;2023-07-31T03:54:43;988.61;;;16.16;100
75089;BME280;63673;49.928;8.150;2023-07-31T03:55:45;988.66;;;16.15;100
75089;BME280;63673;49.928;8.150;2023-07-31T03:56:47;988.65;;;16.14;100
75089;BME280;63673;49.928;8.150;2023-07-31T03:57:49;988.67;;;16.12;100
75089;BME280;63673;49.928;8.150;2023-07-31T03:58:51;988.61;;;16.11;100
75089;BME280;63673;49.928;8.150;2023-07-31T03:59:52;988.63;;;16.1;100
75089;BME280;63673;49.928;8.150;2023-07-31T04:00:54;988.63;;;16.09;100
75089;BME280;63673;49.928;8.150;2023-07-31T04:01:56;988.61;;;16.08;100
75089;BME280;63673;49.928;8.150;2023-07-31T04:02:57;988.58;;;16.08;100
75089;BME280;63673;49.928;8.150;2023-07-31T04:03:59;988.58;;;16.07;100
75089;BME280;63673;49.928;8.150;2023-07-31T04:05:01;988.57;;;16.06;100
75089;BME280;63673;49.928;8.150;2023-07-31T04:06:03;988.56;;;16.06;100
75089;BME280;63673;49.928;8.150;2023-07-31T04:07:04;988.5;;;16.06;100
75089;BME280;63673;49.928;8.150;2023-07-31T04:08:06;988.56;;;16.06;100
75089;BME280;63673;49.928;8.150;2023-07-31T04:09:08;988.56;;;16.06;100
75089;BME280;63673;49.928;8.150;2023-07-31T04:10:09;988.53;;;16.06;100
75089;BME280;63673;49.928;8.150;2023-07-31T04:11:11;988.52;;;16.07;100
75089;BME280;63673;49.928;8.150;2023-07-31T04:12:13;988.45;;;16.07;100
75089;BME280;63673;49.928;8.150;2023-07-31T04:13:15;988.44;;;16.07;100
75089;BME280;63673;49.928;8.150;2023-07-31T04:14:16;988.43;;;16.08;100
75089;BME280;63673;49.928;8.150;2023-07-31T04:15:18;988.44;;;16.09;100
75089;BME280;63673;49.928;8.150;2023-07-31T04:16:20;988.41;;;16.08;100
75089;BME280;63673;49.928;8.150;2023-07-31T04:17:22;988.41;;;16.09;100
75089;BME280;63673;49.928;8.150;2023-07-31T04:18:24;988.37;;;16.09;100
75089;BME280;63673;49.928;8.150;2023-07-31T04:19:25;988.36;;;16.09;100
75089;BME280;63673;49.928;8.150;2023-07-31T04:20:27;988.34;;;16.11;100
75089;BME280;63673;49.928;8.150;2023-07-31T04:21:29;988.38;;;16.11;100
75089;BME280;63673;49.928;8.150;2023-07-31T04:22:30;988.32;;;16.11;100
75089;BME280;63673;49.928;8.150;2023-07-31T04:23:32;988.3;;;16.12;100
75089;BME280;63673;49.928;8.150;2023-07-31T04:24:34;988.29;;;16.11;100
75089;BME280;63673;49.928;8.150;2023-07-31T04:25:35;988.26;;;16.12;100
75089;BME280;63673;49.928;8.150;2023-07-31T04:26:38;988.29;;;16.12;100
75089;BME280;63673;49.928;8.150;2023-07-31T04:27:40;988.26;;;16.13;100
75089;BME280;63673;49.928;8.150;2023-07-31T04:28:41;988.3;;;16.13;100
75089;BME280;63673;49.928;8.150;2023-07-31T04:29:43;988.28;;;16.14;100
75089;BME280;63673;49.928;8.150;2023-07-31T04:30:45;988.29;;;16.14;100
75089;BME280;63673;49.928;8.150;2023-07-31T04:31:47;988.24;;;16.15;100
75089;BME280;63673;49.928;8.150;2023-07-31T04:32:48;988.24;;;16.15;100
75089;BME280;63673;49.928;8.150;2023-07-31T04:33:50;988.25;;;16.15;100
75089;BME280;63673;49.928;8.150;2023-07-31T04:34:51;988.23;;;16.15;100
75089;BME280;63673;49.928;8.150;2023-07-31T04:35:54;988.18;;;16.16;100
75089;BME280;63673;49.928;8.150;2023-07-31T04:36:57;988.17;;;16.17;100
75089;BME280;63673;49.928;8.150;2023-07-31T04:38:02;988.18;;;16.17;100
75089;BME280;63673;49.928;8.150;2023-07-31T04:39:04;988.13;;;16.18;100
75089;BME280;63673;49.928;8.150;2023-07-31T04:40:06;988.1;;;16.18;100
75089;BME280;63673;49.928;8.150;2023-07-31T04:41:07;988.18;;;16.18;100
75089;BME280;63673;49.928;8.150;2023-07-31T04:42:09;988.17;;;16.18;100
75089;BME280;63673;49.928;8.150;2023-07-31T04:43:13;988.2;;;16.18;100
75089;BME280;63673;49.928;8.150;2023-07-31T04:50:02;988.16;;;16.19;100
75089;BME280;63673;49.928;8.150;2023-07-31T04:51:04;988.19;;;16.19;100
75089;BME280;63673;49.928;8.150;2023-07-31T04:52:06;988.25;;;16.19;100
75089;BME280;63673;49.928;8.150;2023-07-31T04:53:07;988.27;;;16.19;100
75089;BME280;63673;49.928;8.150;2023-07-31T04:54:09;988.26;;;16.18;100
75089;BME280;63673;49.928;8.150;2023-07-31T04:55:11;988.24;;;16.18;100
75089;BME280;63673;49.928;8.150;2023-07-31T04:56:13;988.25;;;16.18;100
75089;BME280;63673;49.928;8.150;2023-07-31T04:57:14;988.23;;;16.17;100
75089;BME280;63673;49.928;8.150;2023-07-31T04:58:16;988.2;;;16.17;100
75089;BME280;63673;49.928;8.150;2023-07-31T04:59:18;988.27;;;16.18;100
75089;BME280;63673;49.928;8.150;2023-07-31T05:00:20;988.28;;;16.17;100
75089;BME280;63673;49.928;8.150;2023-07-31T05:01:21;988.26;;;16.17;100
75089;BME280;63673;49.928;8.150;2023-07-31T05:02:23;988.36;;;16.17;100
75089;BME280;63673;49.928;8.150;2023-07-31T05:03:25;988.35;;;16.16;100
75089;BME280;63673;49.928;8.150;2023-07-31T05:04:26;988.33;;;16.16;100
75089;BME280;63673;49.928;8.150;2023-07-31T05:05:28;988.3;;;16.16;100
75089;BME280;63673;49.928;8.150;2023-07-31T05:06:30;988.35;;;16.16;100
75089;BME280;63673;49.928;8.150;2023-07-31T05:07:32;988.32;;;16.15;100
75089;BME280;63673;49.928;8.150;2023-07-31T05:08:33;988.3;;;16.14;100
75089;BME280;63673;49.928;8.150;2023-07-31T05:09:35;988.27;;;16.15;100
75089;BME280;63673;49.928;8.150;2023-07-31T05:10:37;988.32;;;16.14;100
75089;BME280;63673;49.928;8.150;2023-07-31T05:11:39;988.26;;;16.15;100
75089;BME280;63673;49.928;8.150;2023-07-31T05:12:40;988.27;;;16.15;100
75089;BME280;63673;49.928;8.150;2023-07-31T05:13:42;988.27;;;16.15;100
75089;BME280;63673;49.928;8.150;2023-07-31T05:14:44;988.25;;;16.15;100
75089;BME280;63673;49.928;8.150;2023-07-31T05:15:46;988.27;;;16.15;100
75089;BME280;63673;49.928;8.150;2023-07-31T05:16:47;988.23;;;16.15;100
75089;BME280;63673;49.928;8.150;2023-07-31T05:17:49;988.27;;;16.16;100
75089;BME280;63673;49.928;8.150;2023-07-31T05:18:51;988.2;;;16.16;100
75089;BME280;63673;49.928;8.150;2023-07-31T05:19:52;988.22;;;16.16;100
75089;BME280;63673;49.928;8.150;2023-07-31T05:20:54;988.15;;;16.17;100
75089;BME280;63673;49.928;8.150;2023-07-31T05:21:56;988.19;;;16.17;100
75089;BME280;63673;49.928;8.150;2023-07-31T05:22:58;988.2;;;16.18;100
75089;BME280;63673;49.928;8.150;2023-07-31T05:23:59;988.21;;;16.18;100
75089;BME280;63673;49.928;8.150;2023-07-31T05:25:01;988.17;;;16.2;100
75089;BME280;63673;49.928;8.150;2023-07-31T05:26:03;988.19;;;16.2;100
75089;BME280;63673;49.928;8.150;2023-07-31T05:27:05;988.13;;;16.21;100
75089;BME280;63673;49.928;8.150;2023-07-31T05:28:06;988.14;;;16.22;100
75089;BME280;63673;49.928;8.150;2023-07-31T05:29:08;988.2;;;16.22;100
75089;BME280;63673;49.928;8.150;2023-07-31T05:30:10;988.18;;;16.24;100
75089;BME280;63673;49.928;8.150;2023-07-31T05:31:11;988.1;;;16.25;100
75089;BME280;63673;49.928;8.150;2023-07-31T05:32:13;988.18;;;16.26;100
75089;BME280;63673;49.928;8.150;2023-07-31T05:33:15;988.17;;;16.26;100
75089;BME280;63673;49.928;8.150;2023-07-31T05:34:17;988.13;;;16.28;100
75089;BME280;63673;49.928;8.150;2023-07-31T05:35:18;988.17;;;16.28;100
75089;BME280;63673;49.928;8.150;2023-07-31T05:36:20;988.26;;;16.29;100
75089;BME280;63673;49.928;8.150;2023-07-31T05:37:22;988.25;;;16.3;100
75089;BME280;63673;49.928;8.150;2023-07-31T05:38:23;988.27;;;16.32;100
75089;BME280;63673;49.928;8.150;2023-07-31T05:39:25;988.21;;;16.32;100
75089;BME280;63673;49.928;8.150;2023-07-31T05:40:27;988.25;;;16.33;100
75089;BME280;63673;49.928;8.150;2023-07-31T05:41:29;988.21;;;16.36;100
75089;BME280;63673;49.928;8.150;2023-07-31T05:42:31;988.18;;;16.38;100
75089;BME280;63673;49.928;8.150;2023-07-31T05:43:32;988.22;;;16.4;100
75089;BME280;63673;49.928;8.150;2023-07-31T05:44:34;988.18;;;16.41;100
75089;BME280;63673;49.928;8.150;2023-07-31T05:45:36;988.15;;;16.43;100
75089;BME280;63673;49.928;8.150;2023-07-31T05:46:37;988.21;;;16.44;100
75089;BME280;63673;49.928;8.150;2023-07-31T05:47:39;988.16;;;16.45;100
75089;BME280;63673;49.928;8.150;2023-07-31T05:48:41;988.18;;;16.47;100
75089;BME280;63673;49.928;8.150;2023-07-31T05:49:43;988.15;;;16.49;100
75089;BME280;63673;49.928;8.150;2023-07-31T05:50:44;988.1;;;16.5;100
75089;BME280;63673;49.928;8.150;2023-07-31T05:51:46;988.11;;;16.53;100
75089;BME280;63673;49.928;8.150;2023-07-31T05:52:48;988.06;;;16.55;100